RELEVES METEO NEUVILLE
Donnes mto: Actuelle vendredi, 19/07/2019 16:45
Date Horaire Temp. E. Hum. E. P.atmo. Pluie Vent Direction Direction P. de rose Temp au vent Rafales
19/07/2019 16:45 27,5 C 45 % 1012,1 hPa 0,0 mm 1,7 km/h (1 Bft) SO 223 14,5 C 27,5 C 11,3 km/h (2 Bft)
19/07/2019 16:40 27,4 C 45 % 1012,2 hPa 0,0 mm 1,6 km/h (1 Bft) S-SO 198 14,4 C 27,4 C 12,9 km/h (3 Bft)
19/07/2019 16:35 27,4 C 45 % 1012,2 hPa 0,0 mm 1,5 km/h (1 Bft) S 182 14,4 C 27,4 C 11,3 km/h (2 Bft)
19/07/2019 16:30 27,2 C 45 % 1012,2 hPa 0,0 mm 3,1 km/h (1 Bft) S 181 14,2 C 27,2 C 11,3 km/h (2 Bft)
19/07/2019 16:25 27,1 C 46 % 1012,3 hPa 0,0 mm 0,7 km/h (0 Bft) O-NO 290 14,5 C 27,1 C 8,0 km/h (2 Bft)
19/07/2019 16:20 26,9 C 45 % 1012,3 hPa 0,0 mm 2,5 km/h (1 Bft) S-SO 192 13,9 C 26,9 C 12,9 km/h (3 Bft)
19/07/2019 16:15 27,0 C 45 % 1012,4 hPa 0,0 mm 1,8 km/h (1 Bft) SO 224 14,0 C 27,0 C 11,3 km/h (2 Bft)
19/07/2019 16:10 26,7 C 45 % 1012,4 hPa 0,0 mm 1,9 km/h (1 Bft) SO 214 13,8 C 26,7 C 12,9 km/h (3 Bft)
19/07/2019 16:05 26,6 C 45 % 1012,5 hPa 0,0 mm 2,7 km/h (1 Bft) O-SO 238 13,7 C 26,6 C 11,3 km/h (2 Bft)
19/07/2019 16:00 26,5 C 45 % 1012,5 hPa 0,0 mm 2,1 km/h (1 Bft) S-SE 167 13,6 C 26,5 C 11,3 km/h (2 Bft)
19/07/2019 15:55 26,4 C 46 % 1012,5 hPa 0,0 mm 1,5 km/h (1 Bft) O 263 13,8 C 26,4 C 16,1 km/h (3 Bft)
19/07/2019 15:50 26,3 C 46 % 1012,5 hPa 0,0 mm 3,6 km/h (1 Bft) N-NE 18 13,7 C 26,3 C 14,5 km/h (3 Bft)
19/07/2019 15:45 26,5 C 45 % 1012,4 hPa 0,0 mm 3,7 km/h (1 Bft) S-SO 200 13,6 C 26,5 C 14,5 km/h (3 Bft)
19/07/2019 15:40 26,4 C 45 % 1012,5 hPa 0,0 mm 3,4 km/h (1 Bft) S 185 13,5 C 26,4 C 12,9 km/h (3 Bft)
19/07/2019 15:35 26,5 C 45 % 1012,6 hPa 0,0 mm 2,2 km/h (1 Bft) O 262 13,6 C 26,5 C 9,7 km/h (2 Bft)
19/07/2019 15:30 26,4 C 46 % 1012,7 hPa 0,0 mm 2,3 km/h (1 Bft) S 176 13,8 C 26,4 C 14,5 km/h (3 Bft)
19/07/2019 15:25 26,2 C 46 % 1012,7 hPa 0,0 mm 2,5 km/h (1 Bft) E-SE 110 13,6 C 26,2 C 14,5 km/h (3 Bft)
19/07/2019 15:20 26,1 C 47 % 1012,7 hPa 0,0 mm 2,6 km/h (1 Bft) O 267 13,9 C 26,1 C 14,5 km/h (3 Bft)
19/07/2019 15:15 26,2 C 46 % 1012,7 hPa 0,0 mm 6,3 km/h (2 Bft) SO 232 13,6 C 26,2 C 19,3 km/h (3 Bft)
19/07/2019 15:10 26,3 C 46 % 1012,7 hPa 0,0 mm 3,9 km/h (1 Bft) O-NO 290 13,7 C 26,3 C 12,9 km/h (3 Bft)
19/07/2019 15:05 26,1 C 47 % 1012,8 hPa 0,0 mm 2,1 km/h (1 Bft) O-SO 240 13,9 C 26,1 C 11,3 km/h (2 Bft)
_ Min-Heure 06:40 15:35 16:45 - 00:05 - - 06:45 06:45 01:25
Minimum _ 14,8 C 45 % 1012,1 hPa - 0,0 km/h (0 Bft) - - 12,8 C 14,8 C 0,0 km/h (0 Bft)
_ Max-Heure 16:40 06:20 09:20 00:00 15:15 - - 00:00 16:45 15:15
Maximum _ 27,5 C 88 % 1014,4 hPa 0,0 mm 6,3 km/h
SO (2 Bft)
- - 15,6 C 27,5 C 19,3 km/h
S-SE (3 Bft)
Moyenne _ 19,3 C 72 % 1013,4 hPa #0,0 mm 1,1 km/h (1 Bft) S - 13,7 C 19,3 C 6,6 km/h (2 Bft)
NEUVILLE ST REMY